Time;durP1;ratioP1;P1;durP2;ratioP2;P2;SDS_P1;SDS_P2;PMS_P1;PMS_P2;Temp;Humidity;BMP_temperature;BMP_pressure;BME280_temperature;BME280_humidity;BME280_pressure;Samples;Min_cycle;Max_cycle;Signal;HPM_P1;HPM_P2
2021/08/07 00:01:01;;;;;;;;;;;;;;;14.62;100.00;99888.31;5113653;28;20007;-66
2021/08/07 00:03:27;;;;;;;;;;;;;;;14.57;100.00;99888.81;5112440;28;20311;-66
2021/08/07 00:05:54;;;;;;;;;;;;;;;14.55;100.00;99888.13;5113657;28;20019;-66
2021/08/07 00:08:20;;;;;;;;;;;;;;;14.55;100.00;99889.00;5113463;28;20019;-71
2021/08/07 00:10:46;;;;;;;;;;;;;;;14.57;100.00;99891.56;5113431;28;20014;-72
2021/08/07 00:13:14;;;;;;;;;;;;;;;14.52;100.00;99892.09;5113468;28;20244;-73
2021/08/07 00:15:40;;;;;;;;;;;;;;;14.51;100.00;99890.38;5113376;28;19924;-73
2021/08/07 00:18:07;;;;;;;;;;;;;;;14.51;100.00;99895.84;5113059;28;19923;-74
2021/08/07 00:20:33;;;;;;;;;;;;;;;14.51;100.00;99893.09;5113193;28;20117;-74
2021/08/07 00:22:59;;;;;;;;;;;;;;;14.52;100.00;99894.81;5112615;28;20011;-72
2021/08/07 00:25:26;;;;;;;;;;;;;;;14.53;100.00;99896.50;5112891;28;19962;-73
2021/08/07 00:27:52;;;;;;;;;;;;;;;14.56;100.00;99896.19;5113616;28;20019;-73
2021/08/07 00:30:20;;;;;;;;;;;;;;;14.59;100.00;99886.78;5113600;28;20022;-73
2021/08/07 00:32:46;;;;;;;;;;;;;;;14.59;100.00;99895.00;5111899;28;19931;-72
2021/08/07 00:35:16;;;;;;;;;;;;;;;14.57;100.00;99878.75;5111612;28;19924;-72
2021/08/07 00:37:43;;;;;;;;;;;;;;;14.55;100.00;99885.41;5112711;28;19924;-72
2021/08/07 00:40:12;;;;;;;;;;;;;;;14.52;100.00;99889.34;5111535;28;19980;-73
2021/08/07 00:42:40;;;;;;;;;;;;;;;14.51;100.00;99894.97;5111636;28;19934;-72
2021/08/07 00:45:14;;;;;;;;;;;;;;;14.50;100.00;99887.81;5112657;28;19931;-67
2021/08/07 00:47:44;;;;;;;;;;;;;;;14.46;100.00;99884.56;5111330;28;19934;-67
2021/08/07 00:50:11;;;;;;;;;;;;;;;14.45;100.00;99884.75;5111097;28;19928;-67
2021/08/07 00:52:39;;;;;;;;;;;;;;;14.41;100.00;99876.03;5111460;28;20504;-67
2021/08/07 00:55:07;;;;;;;;;;;;;;;14.37;100.00;99882.84;5112889;28;19955;-67
2021/08/07 00:57:34;;;;;;;;;;;;;;;14.33;100.00;99884.22;5110991;28;19924;-67
2021/08/07 01:00:00;;;;;;;;;;;;;;;14.35;100.00;99885.75;5111224;28;19959;-67
2021/08/07 01:02:27;;;;;;;;;;;;;;;14.34;100.00;99885.94;5112265;28;19963;-67
2021/08/07 01:05:04;;;;;;;;;;;;;;;14.37;100.00;99886.44;5111175;28;19923;-67
2021/08/07 01:07:32;;;;;;;;;;;;;;;14.33;100.00;99884.22;5110961;28;19931;-67
2021/08/07 01:10:05;;;;;;;;;;;;;;;14.28;100.00;99884.72;5112237;28;20006;-67
2021/08/07 01:12:41;;;;;;;;;;;;;;;14.28;100.00;99892.06;5111156;28;19973;-67
2021/08/07 01:15:12;;;;;;;;;;;;;;;14.26;100.00;99889.50;5111176;28;20079;-67
2021/08/07 01:17:41;;;;;;;;;;;;;;;14.25;100.00;99887.78;5110858;28;19927;-67
2021/08/07 01:20:14;;;;;;;;;;;;;;;14.20;100.00;99885.59;5110950;28;20422;-72
2021/08/07 01:22:53;;;;;;;;;;;;;;;14.21;100.00;99889.16;5111210;28;19928;-72
2021/08/07 01:25:20;;;;;;;;;;;;;;;14.19;100.00;99888.44;5110817;28;20321;-72
2021/08/07 01:27:54;;;;;;;;;;;;;;;14.13;100.00;99887.25;5110764;28;19928;-72
2021/08/07 01:30:25;;;;;;;;;;;;;;;14.12;100.00;99882.81;5112026;28;20266;-71
2021/08/07 01:32:54;;;;;;;;;;;;;;;14.09;100.00;99883.16;5110779;28;20022;-71
2021/08/07 01:35:23;;;;;;;;;;;;;;;14.12;100.00;99882.81;5109995;28;19928;-72
2021/08/07 01:37:53;;;;;;;;;;;;;;;14.09;100.00;99883.16;5110579;28;19930;-71
2021/08/07 01:40:31;;;;;;;;;;;;;;;14.03;100.00;99889.28;5110852;28;19923;-71
2021/08/07 01:43:10;;;;;;;;;;;;;;;13.99;100.00;99882.44;5110686;28;20022;-71
2021/08/07 01:45:40;;;;;;;;;;;;;;;13.99;100.00;99877.88;5110742;28;20299;-71
2021/08/07 01:48:12;;;;;;;;;;;;;;;14.03;100.00;99878.38;5110338;28;20016;-72
2021/08/07 01:50:45;;;;;;;;;;;;;;;13.97;100.00;99877.16;5110738;28;19976;-72
2021/08/07 01:53:14;;;;;;;;;;;;;;;13.96;100.00;99877.34;5110630;28;19974;-72
2021/08/07 01:55:52;;;;;;;;;;;;;;;13.94;100.00;99884.84;5110609;28;19932;-72
2021/08/07 01:58:23;;;;;;;;;;;;;;;13.94;100.00;99879.41;5110333;28;19975;-72
2021/08/07 02:00:51;;;;;;;;;;;;;;;13.94;100.00;99873.94;5110781;28;20026;-72
2021/08/07 02:03:29;;;;;;;;;;;;;;;13.90;100.00;99876.16;5110538;28;19924;-72
2021/08/07 02:05:55;;;;;;;;;;;;;;;13.87;100.00;99877.34;5110561;28;20410;-72
2021/08/07 02:08:22;;;;;;;;;;;;;;;13.86;100.00;99872.88;5110285;28;19924;-72
2021/08/07 02:10:54;;;;;;;;;;;;;;;13.87;100.00;99874.59;5110500;28;19927;-73
2021/08/07 02:13:22;;;;;;;;;;;;;;;13.86;100.00;99880.22;5111690;28;19924;-67
2021/08/07 02:15:54;;;;;;;;;;;;;;;13.86;100.00;99875.63;5110485;28;19927;-67
2021/08/07 02:18:27;;;;;;;;;;;;;;;13.85;100.00;99867.59;5110178;28;20399;-67
2021/08/07 02:20:55;;;;;;;;;;;;;;;13.88;100.00;99868.13;5110589;28;19978;-67
2021/08/07 02:23:24;;;;;;;;;;;;;;;13.84;100.00;99869.50;5110152;28;20018;-68
2021/08/07 02:25:53;;;;;;;;;;;;;;;13.82;100.00;99866.06;5110319;28;20413;-67
2021/08/07 02:28:26;;;;;;;;;;;;;;;13.77;100.00;99868.44;5110138;28;19950;-67
2021/08/07 02:30:56;;;;;;;;;;;;;;;13.72;100.00;99873.53;5110424;28;20285;-68
2021/08/07 02:33:25;;;;;;;;;;;;;;;13.71;100.00;99880.03;5110028;28;19924;-67
2021/08/07 02:35:54;;;;;;;;;;;;;;;13.73;100.00;99877.97;5110323;28;19930;-67
2021/08/07 02:38:21;;;;;;;;;;;;;;;13.68;100.00;99869.44;5110005;28;19993;-68
2021/08/07 02:40:47;;;;;;;;;;;;;;;13.68;100.00;99877.59;5110109;28;19924;-68
2021/08/07 02:43:17;;;;;;;;;;;;;;;13.67;100.00;99889.53;5110378;28;20014;-67
2021/08/07 02:45:45;;;;;;;;;;;;;;;13.70;100.00;99890.06;5111575;28;19923;-72
2021/08/07 02:48:16;;;;;;;;;;;;;;;13.70;100.00;99890.06;5113120;28;19977;-72
2021/08/07 02:50:43;;;;;;;;;;;;;;;13.72;100.00;99878.97;5114779;28;19928;-72
2021/08/07 02:53:11;;;;;;;;;;;;;;;13.66;100.00;99880.50;5113857;28;20313;-72
2021/08/07 02:55:39;;;;;;;;;;;;;;;13.61;100.00;99887.47;5114240;28;19969;-72
2021/08/07 02:58:13;;;;;;;;;;;;;;;13.58;100.00;99879.63;5113627;28;19931;-72
2021/08/07 03:00:41;;;;;;;;;;;;;;;13.55;100.00;99891.72;5113533;28;19923;-72
2021/08/07 03:03:08;;;;;;;;;;;;;;;13.51;100.00;99885.75;5113591;28;20390;-72
2021/08/07 03:05:37;;;;;;;;;;;;;;;13.50;100.00;99889.47;5114577;28;19924;-72
2021/08/07 03:08:04;;;;;;;;;;;;;;;13.49;100.00;99882.31;5114359;27;19959;-72
2021/08/07 03:10:34;;;;;;;;;;;;;;;13.47;100.00;99884.34;5113412;28;19928;-72
2021/08/07 03:13:02;;;;;;;;;;;;;;;13.49;100.00;99893.22;5113290;28;19986;-72
2021/08/07 03:15:31;;;;;;;;;;;;;;;13.47;100.00;99884.34;5113053;28;20413;-72
2021/08/07 03:17:57;;;;;;;;;;;;;;;13.50;100.00;99888.63;5113257;28;19958;-67
2021/08/07 03:20:31;;;;;;;;;;;;;;;13.49;100.00;99890.47;5113090;28;19928;-67
2021/08/07 03:23:01;;;;;;;;;;;;;;;13.48;100.00;99893.38;5113303;28;19931;-72
2021/08/07 03:25:28;;;;;;;;;;;;;;;13.46;100.00;99896.28;5112849;28;19930;-72
2021/08/07 03:27:55;;;;;;;;;;;;;;;13.51;100.00;99896.63;5112936;28;19928;-72
2021/08/07 03:30:22;;;;;;;;;;;;;;;13.51;100.00;99904.81;5114329;28;20307;-72
2021/08/07 03:32:50;;;;;;;;;;;;;;;13.52;100.00;99895.63;5114326;28;19923;-72
2021/08/07 03:35:17;;;;;;;;;;;;;;;13.54;100.00;99901.75;5112895;28;20014;-71
2021/08/07 03:37:47;;;;;;;;;;;;;;;13.55;100.00;99895.28;5112590;28;19928;-72
2021/08/07 03:40:15;;;;;;;;;;;;;;;13.55;100.00;99899.91;5112934;28;20306;-67
2021/08/07 03:42:45;;;;;;;;;;;;;;;13.54;100.00;99890.00;5112735;28;19928;-67
2021/08/07 03:45:17;;;;;;;;;;;;;;;13.54;100.00;99890.84;5112730;28;20008;-67
2021/08/07 03:47:50;;;;;;;;;;;;;;;13.56;100.00;99890.69;5112252;28;20172;-68
2021/08/07 03:50:17;;;;;;;;;;;;;;;13.58;100.00;99885.09;5112861;28;19946;-67
2021/08/07 03:52:44;;;;;;;;;;;;;;;13.59;100.00;99881.31;5113870;28;19928;-68
2021/08/07 03:55:13;;;;;;;;;;;;;;;13.58;100.00;99874.19;5112673;28;19924;-67
2021/08/07 03:57:47;;;;;;;;;;;;;;;13.52;100.00;99884.72;5111405;28;19928;-68
2021/08/07 04:00:13;;;;;;;;;;;;;;;13.47;100.00;99884.34;5112590;28;19924;-68
2021/08/07 04:02:40;;;;;;;;;;;;;;;13.50;100.00;99883.19;5113556;28;19924;-68
2021/08/07 04:05:10;;;;;;;;;;;;;;;13.50;100.00;99877.72;5112404;28;20287;-68
2021/08/07 04:07:36;;;;;;;;;;;;;;;13.51;100.00;99874.84;5112120;28;20023;-68
2021/08/07 04:10:03;;;;;;;;;;;;;;;13.48;100.00;99877.91;5112104;28;19931;-68
2021/08/07 04:12:31;;;;;;;;;;;;;;;13.49;100.00;99879.59;5112160;28;20018;-68
2021/08/07 04:14:58;;;;;;;;;;;;;;;13.49;100.00;99871.41;5112173;28;19962;-68
2021/08/07 04:17:25;;;;;;;;;;;;;;;13.51;100.00;99876.72;5111774;28;19930;-68
2021/08/07 04:19:52;;;;;;;;;;;;;;;13.53;100.00;99878.22;5113501;28;19977;-68
2021/08/07 04:22:24;;;;;;;;;;;;;;;13.58;100.00;99883.22;5111817;28;20302;-68
2021/08/07 04:24:51;;;;;;;;;;;;;;;13.64;100.00;99885.28;5111986;28;19924;-68
2021/08/07 04:27:20;;;;;;;;;;;;;;;13.70;100.00;99875.59;5111641;28;19955;-68
2021/08/07 04:29:49;;;;;;;;;;;;;;;13.75;100.00;99880.53;5111906;28;19949;-66
2021/08/07 04:32:15;;;;;;;;;;;;;;;13.84;100.00;99885.84;5111996;28;19927;-68
2021/08/07 04:34:42;;;;;;;;;;;;;;;13.89;100.00;99886.19;5104193;28;19947;-68
2021/08/07 04:37:12;;;;;;;;;;;;;;;13.96;100.00;99894.56;5097952;28;19924;-68
2021/08/07 04:39:39;;;;;;;;;;;;;;;14.03;100.00;99886.56;5101669;28;19928;-68
2021/08/07 04:42:08;;;;;;;;;;;;;;;14.08;100.00;99895.09;5093700;28;19924;-68
2021/08/07 04:44:35;;;;;;;;;;;;;;;14.15;100.00;99893.41;5099510;28;19934;-68
2021/08/07 04:47:03;;;;;;;;;;;;;;;14.23;100.00;99890.69;5109656;28;19924;-69
2021/08/07 04:49:30;;;;;;;;;;;;;;;14.31;100.00;99892.59;5111510;28;19972;-68
2021/08/07 04:51:58;;;;;;;;;;;;;;;14.39;100.00;99899.91;5107764;28;19931;-68
2021/08/07 04:54:25;;;;;;;;;;;;;;;14.47;100.00;99908.13;5111106;28;19927;-68
2021/08/07 04:56:52;;;;;;;;;;;;;;;14.56;100.00;99907.09;5091975;28;20300;-68
2021/08/07 04:59:20;;;;;;;;;;;;;;;14.62;100.00;99904.69;5090908;28;19966;-68
2021/08/07 05:01:47;;;;;;;;;;;;;;;14.68;100.00;99899.44;5090855;28;19939;-68
2021/08/07 05:04:15;;;;;;;;;;;;;;;14.74;100.00;99897.91;5090973;28;19931;-68
2021/08/07 05:06:45;;;;;;;;;;;;;;;14.80;100.00;99891.72;5090664;28;19951;-68
2021/08/07 05:09:11;;;;;;;;;;;;;;;14.87;100.00;99894.63;5091486;28;20432;-69
2021/08/07 05:11:53;;;;;;;;;;;;;;;14.97;100.00;99899.94;5091084;28;20583;-68
2021/08/07 05:14:19;;;;;;;;;;;;;;;15.05;100.00;99910.84;5091801;28;19924;-68
2021/08/07 05:16:45;;;;;;;;;;;;;;;15.10;100.00;99915.78;5091841;28;19965;-68
2021/08/07 05:19:14;;;;;;;;;;;;;;;15.19;100.00;99912.00;5090558;28;19925;-68
2021/08/07 05:21:43;;;;;;;;;;;;;;;15.22;100.00;99904.31;5090705;28;20380;-73
2021/08/07 05:24:10;;;;;;;;;;;;;;;15.30;100.00;99905.28;5090689;28;19923;-73
2021/08/07 05:26:36;;;;;;;;;;;;;;;15.39;100.00;99909.72;5091407;28;20454;-73
2021/08/07 05:29:03;;;;;;;;;;;;;;;15.46;100.00;99912.59;5091453;28;19925;-73
2021/08/07 05:31:29;;;;;;;;;;;;;;;15.56;100.00;99922.28;5090245;28;19938;-73
2021/08/07 05:33:56;;;;;;;;;;;;;;;15.60;100.00;99913.75;5091693;28;20388;-72
2021/08/07 05:36:24;;;;;;;;;;;;;;;15.69;100.00;99918.16;5090319;28;19924;-73
2021/08/07 05:38:51;;;;;;;;;;;;;;;15.74;100.00;99908.38;5090184;28;19931;-72
2021/08/07 05:41:17;;;;;;;;;;;;;;;15.89;100.00;99905.78;5090419;28;20425;-72
2021/08/07 05:43:45;;;;;;;;;;;;;;;16.08;100.00;99906.34;5090257;28;19935;-68
2021/08/07 05:46:12;;;;;;;;;;;;;;;16.23;100.00;99907.28;5105469;28;19924;-74
2021/08/07 05:48:39;;;;;;;;;;;;;;;16.49;100.00;99891.50;5102343;28;20063;-73
2021/08/07 05:51:05;;;;;;;;;;;;;;;16.80;100.00;99888.69;5107469;28;19970;-73
2021/08/07 05:53:33;;;;;;;;;;;;;;;17.13;100.00;99882.91;5111703;28;19924;-68
2021/08/07 05:56:00;;;;;;;;;;;;;;;17.55;100.00;99880.53;5108853;28;19923;-68
2021/08/07 05:58:37;;;;;;;;;;;;;;;17.94;100.00;99881.25;5110235;28;19924;-73
2021/08/07 06:01:03;;;;;;;;;;;;;;;18.27;100.00;99864.28;5103084;28;19970;-73
2021/08/07 06:03:30;;;;;;;;;;;;;;;18.64;100.00;99860.38;5090066;28;19936;-73
2021/08/07 06:05:56;;;;;;;;;;;;;;;18.76;100.00;99846.09;5096480;28;20004;-73
2021/08/07 06:08:22;;;;;;;;;;;;;;;19.11;100.00;99860.75;5092698;28;19924;-73
2021/08/07 06:10:50;;;;;;;;;;;;;;;19.20;100.00;99850.44;5092904;28;19981;-72
2021/08/07 06:13:18;;;;;;;;;;;;;;;19.32;100.00;99858.97;5110319;28;20334;-72
2021/08/07 06:15:44;;;;;;;;;;;;;;;19.44;100.00;99862.00;5095522;28;19985;-66
2021/08/07 06:18:11;;;;;;;;;;;;;;;19.69;100.00;99862.31;5089854;28;19978;-66
2021/08/07 06:20:40;;;;;;;;;;;;;;;20.02;100.00;99858.88;5098288;28;20417;-66
2021/08/07 06:23:07;;;;;;;;;;;;;;;20.33;100.00;99868.47;5101777;28;19924;-66
2021/08/07 06:25:33;;;;;;;;;;;;;;;20.24;100.00;99870.56;5102980;28;19923;-66
2021/08/07 06:28:02;;;;;;;;;;;;;;;20.50;100.00;99867.00;5115039;28;19967;-67
2021/08/07 06:30:28;;;;;;;;;;;;;;;20.58;100.00;99866.78;5112304;28;19931;-72
2021/08/07 06:32:58;;;;;;;;;;;;;;;20.69;100.00;99865.34;5113793;28;20383;-72
2021/08/07 06:35:25;;;;;;;;;;;;;;;20.78;100.00;99863.25;5113031;28;19930;-72
2021/08/07 06:37:51;;;;;;;;;;;;;;;21.07;100.00;99869.34;5111177;28;19928;-71
2021/08/07 06:40:18;;;;;;;;;;;;;;;21.30;100.00;99868.03;5094885;28;20358;-71
2021/08/07 06:42:45;;;;;;;;;;;;;;;21.45;100.00;99878.84;5093668;28;19928;-67
2021/08/07 06:45:31;;;;;;;;;;;;;;;21.44;100.00;99874.38;5094604;28;19931;-66
2021/08/07 06:48:03;;;;;;;;;;;;;;;21.69;100.00;99864.31;5095383;28;20216;-72
2021/08/07 06:50:29;;;;;;;;;;;;;;;22.01;100.00;99871.84;5111633;28;20010;-72
2021/08/07 06:52:56;;;;;;;;;;;;;;;22.01;100.00;99878.19;5110668;28;19935;-71
2021/08/07 06:55:23;;;;;;;;;;;;;;;22.46;100.00;99869.03;5111893;28;20010;-72
2021/08/07 06:57:50;;;;;;;;;;;;;;;22.68;100.00;99875.03;5102894;28;20444;-72
2021/08/07 07:00:16;;;;;;;;;;;;;;;22.82;100.00;99878.53;5093193;28;19967;-72
2021/08/07 07:02:45;;;;;;;;;;;;;;;22.89;100.00;99884.00;5105003;28;20019;-66
2021/08/07 07:05:11;;;;;;;;;;;;;;;22.44;100.00;99878.63;5112943;28;19923;-66
2021/08/07 07:07:39;;;;;;;;;;;;;;;22.39;100.00;99882.03;5112770;28;19924;-66
2021/08/07 07:10:07;;;;;;;;;;;;;;;22.51;100.00;99883.00;5111763;28;20431;-67
2021/08/07 07:12:34;;;;;;;;;;;;;;;22.69;100.00;99881.41;5112498;28;19931;-67
2021/08/07 07:15:00;;;;;;;;;;;;;;;22.66;100.00;99888.25;5111426;28;19961;-66
2021/08/07 07:17:28;;;;;;;;;;;;;;;22.96;100.00;99882.03;5111185;28;19924;-67
2021/08/07 07:19:57;;;;;;;;;;;;;;;23.06;100.00;99881.50;5111343;28;20476;-67
2021/08/07 07:22:23;;;;;;;;;;;;;;;23.65;100.00;99875.56;5112797;28;20024;-67
2021/08/07 07:24:49;;;;;;;;;;;;;;;23.71;100.00;99875.50;5113464;28;19924;-67
2021/08/07 07:27:16;;;;;;;;;;;;;;;23.80;100.00;99870.50;5112908;28;20071;-67
2021/08/07 07:29:42;;;;;;;;;;;;;;;23.35;100.00;99876.34;5113110;28;19928;-68
2021/08/07 07:32:09;;;;;;;;;;;;;;;23.78;100.00;99872.63;5113062;28;19923;-67
2021/08/07 07:34:35;;;;;;;;;;;;;;;23.80;100.00;99873.25;5114209;28;20387;-67
2021/08/07 07:37:04;;;;;;;;;;;;;;;24.09;100.00;99886.56;5113068;28;20297;-67
2021/08/07 07:39:31;;;;;;;;;;;;;;;24.02;100.00;99881.94;5112786;28;19955;-67
2021/08/07 07:41:58;;;;;;;;;;;;;;;24.23;100.00;99888.91;5113071;28;19928;-67
2021/08/07 07:44:25;;;;;;;;;;;;;;;24.12;100.00;99886.94;5112743;28;19974;-66
2021/08/07 07:46:51;;;;;;;;;;;;;;;24.19;100.00;99892.41;5112754;28;19977;-67
2021/08/07 07:49:17;;;;;;;;;;;;;;;24.71;100.00;99905.72;5112603;28;19924;-72
2021/08/07 07:51:45;;;;;;;;;;;;;;;24.52;100.00;99907.69;5113994;28;19924;-72
2021/08/07 07:54:13;;;;;;;;;;;;;;;24.64;100.00;99904.97;5113095;28;19924;-72
2021/08/07 07:56:40;;;;;;;;;;;;;;;23.40;100.00;99913.34;5112682;28;19927;-72
2021/08/07 07:59:07;;;;;;;;;;;;;;;23.95;100.00;99906.13;5112623;28;19928;-72
2021/08/07 08:01:33;;;;;;;;;;;;;;;23.99;100.00;99899.03;5112465;28;19981;-72
2021/08/07 08:04:00;;;;;;;;;;;;;;;24.44;100.00;99899.69;5112372;28;19950;-71
2021/08/07 08:06:26;;;;;;;;;;;;;;;24.69;100.00;99894.00;5113600;28;19932;-72
2021/08/07 08:08:53;;;;;;;;;;;;;;;25.01;100.00;99890.91;5111815;28;19924;-71
2021/08/07 08:11:21;;;;;;;;;;;;;;;25.01;100.00;99900.09;5112084;28;19931;-72
2021/08/07 08:13:48;;;;;;;;;;;;;;;25.78;100.00;99884.34;5112253;28;19924;-72
2021/08/07 08:16:14;;;;;;;;;;;;;;;26.05;100.00;99886.59;5113454;28;19923;-71
2021/08/07 08:18:41;;;;;;;;;;;;;;;25.82;100.00;99893.06;5111702;28;20018;-72
2021/08/07 08:21:07;;;;;;;;;;;;;;;25.90;100.00;99885.16;5111960;28;19989;-72
2021/08/07 08:23:35;;;;;;;;;;;;;;;26.10;100.00;99874.75;5111788;28;19943;-71
2021/08/07 08:26:01;;;;;;;;;;;;;;;26.46;100.00;99875.41;5112764;28;19935;-71
2021/08/07 08:28:29;;;;;;;;;;;;;;;26.13;100.00;99880.63;5111559;28;19924;-71
2021/08/07 08:30:56;;;;;;;;;;;;;;;25.36;100.00;99884.53;5111955;28;19923;-71
2021/08/07 08:33:23;;;;;;;;;;;;;;;24.24;100.00;99885.06;5113032;28;20176;-67
2021/08/07 08:35:50;;;;;;;;;;;;;;;24.37;100.00;99889.56;5111586;28;19955;-66
2021/08/07 08:38:17;;;;;;;;;;;;;;;24.63;100.00;99886.66;5111539;28;19980;-71
2021/08/07 08:40:43;;;;;;;;;;;;;;;24.31;100.00;99884.13;5111482;28;19967;-73
2021/08/07 08:43:11;;;;;;;;;;;;;;;24.72;100.00;99885.22;5111255;28;20023;-72
2021/08/07 08:45:40;;;;;;;;;;;;;;;24.58;100.00;99887.31;5111278;28;19927;-72
2021/08/07 08:48:07;;;;;;;;;;;;;;;24.49;100.00;99881.28;5111111;28;19924;-73
2021/08/07 08:50:33;;;;;;;;;;;;;;;23.80;100.00;99880.72;5111407;28;20375;-67
2021/08/07 08:53:02;;;;;;;;;;;;;;;23.65;100.00;99887.53;5111381;28;19967;-67
2021/08/07 08:55:32;;;;;;;;;;;;;;;23.15;100.00;99887.63;5111253;28;20454;-67
2021/08/07 08:57:59;;;;;;;;;;;;;;;22.84;100.00;99884.69;5111145;28;19973;-67
2021/08/07 09:00:25;;;;;;;;;;;;;;;23.16;100.00;99883.78;5111466;28;19947;-68
2021/08/07 09:02:53;;;;;;;;;;;;;;;23.46;100.00;99883.88;5112402;28;19923;-67
2021/08/07 09:05:19;;;;;;;;;;;;;;;23.74;100.00;99890.81;5111386;28;19923;-73
2021/08/07 09:07:47;;;;;;;;;;;;;;;23.53;100.00;99887.44;5111115;28;20022;-73
2021/08/07 09:10:16;;;;;;;;;;;;;;;24.27;100.00;99877.38;5111374;28;19924;-72
2021/08/07 09:12:47;;;;;;;;;;;;;;;24.38;100.00;99880.16;5111349;28;20288;-73
2021/08/07 09:15:28;;;;;;;;;;;;;;;25.24;100.00;99887.28;5111101;28;19924;-73
2021/08/07 09:18:28;;;;;;;;;;;;;;;25.79;100.00;99885.19;5110925;28;19951;-72
2021/08/07 09:21:09;;;;;;;;;;;;;;;26.52;100.00;99874.38;5034858;28;20028;-72
2021/08/07 09:23:36;;;;;;;;;;;;;;;26.81;100.00;99880.75;5098953;28;19929;-72
2021/08/07 09:26:14;;;;;;;;;;;;;;;26.60;100.00;99875.91;5111167;28;19951;-73
2021/08/07 09:28:44;;;;;;;;;;;;;;;27.07;100.00;99878.38;5110625;28;20482;-72
2021/08/07 09:31:10;;;;;;;;;;;;;;;27.08;100.00;99882.03;5111016;28;19924;-72
2021/08/07 09:33:38;;;;;;;;;;;;;;;27.70;100.00;99890.19;5112049;28;20347;-72
2021/08/07 09:36:06;;;;;;;;;;;;;;;27.18;100.00;99890.56;5111059;28;20383;-72
2021/08/07 09:38:33;;;;;;;;;;;;;;;25.47;100.00;99897.59;5110485;28;20287;-67
2021/08/07 09:41:05;;;;;;;;;;;;;;;24.66;100.00;99887.00;5110885;28;19931;-68
2021/08/07 09:43:44;;;;;;;;;;;;;;;23.98;100.00;99889.03;5110809;28;20302;-67
2021/08/07 09:46:11;;;;;;;;;;;;;;;24.29;100.00;99877.97;5110681;28;19934;-67
2021/08/07 09:48:43;;;;;;;;;;;;;;;24.34;100.00;99878.09;5110192;28;20375;-68
2021/08/07 09:51:31;;;;;;;;;;;;;;;24.36;100.00;99884.25;5110772;28;19968;-68
2021/08/07 09:54:09;;;;;;;;;;;;;;;24.00;100.00;99870.25;5110541;28;19923;-68
2021/08/07 09:56:43;;;;;;;;;;;;;;;24.42;100.00;99874.97;5113913;28;20369;-67
2021/08/07 09:59:10;;;;;;;;;;;;;;;25.33;100.00;99866.41;5114942;28;19955;-68
2021/08/07 10:01:37;;;;;;;;;;;;;;;25.27;100.00;99869.28;5114954;28;20026;-68
2021/08/07 10:04:07;;;;;;;;;;;;;;;25.35;100.00;99872.59;5114933;28;19923;-67
2021/08/07 10:06:36;;;;;;;;;;;;;;;25.55;100.00;99863.88;5114485;28;20498;-67
2021/08/07 10:09:04;;;;;;;;;;;;;;;25.29;100.00;99867.13;5107003;28;19923;-66
2021/08/07 10:11:33;;;;;;;;;;;;;;;25.04;100.00;99869.09;5095478;28;19931;-70
2021/08/07 10:14:00;;;;;;;;;;;;;;;25.70;100.00;99871.69;5094375;28;19963;-65
2021/08/07 10:16:38;;;;;;;;;;;;;;;26.21;100.00;99871.88;5104555;28;19924;-65
2021/08/07 10:19:07;;;;;;;;;;;;;;;26.88;100.00;99867.53;5095301;28;19928;-65
2021/08/07 10:21:33;;;;;;;;;;;;;;;26.55;92.17;99858.03;5093827;28;19928;-65
2021/08/07 10:24:02;;;;;;;;;;;;;;;26.76;96.86;99857.56;5098367;28;19969;-66
2021/08/07 10:26:30;;;;;;;;;;;;;;;26.88;97.54;99859.19;5113543;28;20412;-65
2021/08/07 10:29:00;;;;;;;;;;;;;;;26.94;97.28;99864.81;5113260;28;19924;-66
2021/08/07 10:31:27;;;;;;;;;;;;;;;26.42;96.18;99849.16;5112036;28;19924;-67
2021/08/07 10:33:57;;;;;;;;;;;;;;;25.78;100.00;99847.38;5107053;28;20414;-71
2021/08/07 10:36:25;;;;;;;;;;;;;;;26.43;100.00;99848.06;5099278;28;20363;-71
2021/08/07 10:38:53;;;;;;;;;;;;;;;26.81;98.56;99852.09;5112842;28;20018;-70
2021/08/07 10:41:19;;;;;;;;;;;;;;;27.47;96.13;99845.84;5113889;28;19923;-70
2021/08/07 10:43:49;;;;;;;;;;;;;;;27.80;92.30;99844.88;5114000;28;20470;-71
2021/08/07 10:46:18;;;;;;;;;;;;;;;27.43;85.87;99837.16;5113859;28;19928;-71
2021/08/07 10:48:45;;;;;;;;;;;;;;;27.67;84.79;99829.41;5112482;28;19930;-70
2021/08/07 10:51:35;;;;;;;;;;;;;;;27.79;84.05;99836.75;5112527;28;20012;-71
2021/08/07 10:54:02;;;;;;;;;;;;;;;27.63;85.41;99832.94;5113823;28;20288;-71
2021/08/07 10:56:33;;;;;;;;;;;;;;;27.23;89.41;99830.19;5113529;28;19966;-71
2021/08/07 10:59:15;;;;;;;;;;;;;;;26.85;86.28;99829.06;5113497;28;19994;-71
2021/08/07 11:01:44;;;;;;;;;;;;;;;27.40;82.53;99820.97;5113583;28;19982;-65
2021/08/07 11:04:14;;;;;;;;;;;;;;;27.30;85.44;99818.84;5113598;28;20371;-65
2021/08/07 11:06:51;;;;;;;;;;;;;;;27.48;82.34;99823.28;5113203;28;19962;-65
2021/08/07 11:09:18;;;;;;;;;;;;;;;27.35;79.11;99826.44;5113385;28;19927;-65
2021/08/07 11:11:45;;;;;;;;;;;;;;;27.27;80.98;99818.53;5113664;28;19928;-66
2021/08/07 11:14:30;;;;;;;;;;;;;;;27.69;80.21;99823.56;5113469;28;20018;-65
2021/08/07 11:17:11;;;;;;;;;;;;;;;27.89;85.00;99818.22;5113298;28;20011;-65
2021/08/07 11:19:45;;;;;;;;;;;;;;;27.79;82.61;99803.31;5113058;28;19955;-72
2021/08/07 11:22:12;;;;;;;;;;;;;;;27.80;83.29;99802.22;5113685;28;19924;-65
2021/08/07 11:24:57;;;;;;;;;;;;;;;27.95;74.21;99807.13;5113114;28;19924;-72
2021/08/07 11:27:38;;;;;;;;;;;;;;;27.92;80.69;99802.06;5113232;28;20310;-71
2021/08/07 11:30:16;;;;;;;;;;;;;;;28.42;75.43;99803.69;5112991;28;20374;-70
2021/08/07 11:32:42;;;;;;;;;;;;;;;27.41;81.90;99808.72;5111872;28;20286;-65
2021/08/07 11:35:10;;;;;;;;;;;;;;;27.20;85.21;99811.19;5112750;28;20333;-65
2021/08/07 11:37:36;;;;;;;;;;;;;;;26.55;85.47;99824.66;5112822;28;19959;-65
2021/08/07 11:40:23;;;;;;;;;;;;;;;26.05;94.89;99822.66;5112762;28;19951;-65
2021/08/07 11:42:51;;;;;;;;;;;;;;;25.40;99.33;99824.63;5108067;28;19963;-71
2021/08/07 11:45:19;;;;;;;;;;;;;;;25.70;92.26;99823.59;5112924;28;19924;-65
2021/08/07 11:47:46;;;;;;;;;;;;;;;25.50;91.70;99808.19;5053129;28;1672298;-66
2021/08/07 11:50:14;;;;;;;;;;;;;;;25.40;95.45;99814.38;5113846;28;19971;-65
2021/08/07 11:52:40;;;;;;;;;;;;;;;25.07;96.19;99810.28;5113846;28;19971;-65
2021/08/07 11:55:07;;;;;;;;;;;;;;;25.00;100.00;99817.06;5113655;28;19969;-65
2021/08/07 11:57:33;;;;;;;;;;;;;;;24.92;100.00;99823.84;5113505;28;20386;-65
2021/08/07 12:00:14;;;;;;;;;;;;;;;25.09;99.25;99825.88;5113616;28;20014;-64
2021/08/07 12:02:41;;;;;;;;;;;;;;;25.06;99.53;99813.31;5113531;28;19935;-64
2021/08/07 12:05:10;;;;;;;;;;;;;;;25.00;100.00;99815.13;5113525;28;19954;-70
2021/08/07 12:07:37;;;;;;;;;;;;;;;24.81;100.00;99803.28;5113348;28;19924;-71
2021/08/07 12:10:04;;;;;;;;;;;;;;;24.94;100.00;99810.53;5113353;28;19969;-71
2021/08/07 12:12:30;;;;;;;;;;;;;;;25.19;100.00;99813.06;5113372;28;20049;-73
2021/08/07 12:14:57;;;;;;;;;;;;;;;25.14;95.32;99815.72;5113424;28;19976;-73
2021/08/07 12:17:24;;;;;;;;;;;;;;;24.99;99.42;99809.84;5112607;27;20455;-71
2021/08/07 12:19:59;;;;;;;;;;;;;;;25.36;100.00;99812.31;5112643;28;19999;-71
2021/08/07 12:22:26;;;;;;;;;;;;;;;25.41;100.00;99798.56;5113073;28;20399;-70
2021/08/07 12:25:02;;;;;;;;;;;;;;;26.12;100.00;99800.25;5113092;28;20023;-71
2021/08/07 12:27:28;;;;;;;;;;;;;;;26.55;92.21;99787.63;5112430;28;20345;-71
2021/08/07 12:29:54;;;;;;;;;;;;;;;26.69;95.00;99785.34;5112970;28;20379;-71
2021/08/07 12:32:21;;;;;;;;;;;;;;;27.06;93.93;99780.09;5112930;28;19967;-71
2021/08/07 12:34:47;;;;;;;;;;;;;;;27.43;86.15;99778.63;5112836;28;19924;-71
2021/08/07 12:37:15;;;;;;;;;;;;;;;27.71;83.43;99790.69;5112725;28;19963;-70
2021/08/07 12:39:42;;;;;;;;;;;;;;;27.68;76.25;99785.63;5112921;28;19928;-71
2021/08/07 12:42:10;;;;;;;;;;;;;;;27.56;80.05;99786.59;5112751;28;19924;-70
2021/08/07 12:44:37;;;;;;;;;;;;;;;27.51;76.70;99792.13;5112918;28;19923;-72
2021/08/07 12:47:04;;;;;;;;;;;;;;;28.55;78.59;99786.53;5112579;27;19924;-71